THY3QX LTFM-LMML
Flight info
| Callsign | THY3QX |
|---|---|
| Flight time | N/A |
| Altitude | 38000 |
| Route | BARPE1D/35L BARPE UM603 SUTIS DCT RUTOM DCT ABAKO DCT LORED P624 GZO |
| Aircraft | A20N/M-SDE2E3FGHIRWXY/LB1 |
Departure
| Time | N/A |
|---|---|
| Airport | İstanbul Airport (LTFM) |
Arrival
| Time | 2026-04-30 18:33 |
|---|---|
| Airport | Malta International Airport (LMML) |
| Time | Latitude | Longitude | Altitude | Speed | Heading |
|---|---|---|---|---|---|
| 2026-04-30 17:39 | 38.56698 | 19.11688 | 38060 ft | 411 kts | 247° |
| 2026-04-30 17:42 | 38.41219 | 18.80837 | 38056 ft | 414 kts | 240° |
| 2026-04-30 17:43 | 38.32908 | 18.65890 | 38063 ft | 414 kts | 240° |
| 2026-04-30 17:44 | 38.22911 | 18.48008 | 38067 ft | 414 kts | 240° |
| 2026-04-30 17:47 | 38.07801 | 18.21163 | 38063 ft | 416 kts | 241° |
| 2026-04-30 17:48 | 37.95997 | 18.00344 | 38078 ft | 416 kts | 241° |
| 2026-04-30 17:50 | 37.83610 | 17.78635 | 38071 ft | 414 kts | 241° |
| 2026-04-30 17:52 | 37.75240 | 17.64047 | 38066 ft | 414 kts | 241° |
| 2026-04-30 17:54 | 37.60023 | 17.37686 | 38064 ft | 413 kts | 241° |
| 2026-04-30 17:56 | 37.46439 | 17.14331 | 38066 ft | 413 kts | 240° |
| 2026-04-30 17:58 | 37.36248 | 16.96919 | 38066 ft | 412 kts | 240° |
| 2026-04-30 18:00 | 37.22662 | 16.73843 | 38059 ft | 411 kts | 240° |
| 2026-04-30 18:01 | 37.13896 | 16.59648 | 38049 ft | 412 kts | 238° |
| 2026-04-30 18:02 | 37.03133 | 16.42921 | 37958 ft | 410 kts | 238° |
| 2026-04-30 18:03 | 36.97753 | 16.34603 | 36083 ft | 412 kts | 238° |
| 2026-04-30 18:04 | 36.92291 | 16.26174 | 33780 ft | 419 kts | 238° |
| 2026-04-30 18:05 | 36.84876 | 16.14768 | 30411 ft | 429 kts | 237° |
| 2026-04-30 18:06 | 36.77439 | 16.03383 | 27721 ft | 416 kts | 237° |
| 2026-04-30 18:07 | 36.70232 | 15.92373 | 25258 ft | 404 kts | 236° |
| 2026-04-30 18:08 | 36.64948 | 15.84324 | 23524 ft | 396 kts | 236° |
| 2026-04-30 18:09 | 36.58085 | 15.73901 | 21113 ft | 383 kts | 236° |
| 2026-04-30 18:10 | 36.51480 | 15.63873 | 18885 ft | 371 kts | 237° |
| 2026-04-30 18:11 | 36.47190 | 15.52704 | 16645 ft | 352 kts | 252° |
| 2026-04-30 18:11 | 36.44544 | 15.44306 | 15038 ft | 344 kts | 252° |
| 2026-04-30 18:12 | 36.41947 | 15.36096 | 13488 ft | 337 kts | 252° |
| 2026-04-30 18:13 | 36.40252 | 15.30746 | 12373 ft | 333 kts | 252° |
| 2026-04-30 18:13 | 36.37994 | 15.23633 | 10949 ft | 329 kts | 251° |
| 2026-04-30 18:14 | 36.36331 | 15.18414 | 10248 ft | 316 kts | 251° |
| 2026-04-30 18:15 | 36.34071 | 15.11353 | 10043 ft | 278 kts | 251° |
| 2026-04-30 18:15 | 36.31909 | 15.04576 | 10041 ft | 281 kts | 251° |
| 2026-04-30 18:16 | 36.30464 | 15.00063 | 10041 ft | 282 kts | 251° |
| 2026-04-30 18:16 | 36.29015 | 14.95550 | 10039 ft | 281 kts | 251° |
| 2026-04-30 18:17 | 36.28291 | 14.93296 | 10036 ft | 282 kts | 251° |
| 2026-04-30 18:17 | 36.27567 | 14.91046 | 10036 ft | 282 kts | 251° |
| 2026-04-30 18:17 | 36.26116 | 14.86538 | 10036 ft | 281 kts | 251° |
| 2026-04-30 18:18 | 36.25390 | 14.84285 | 10035 ft | 282 kts | 251° |
| 2026-04-30 18:18 | 36.24665 | 14.82037 | 10036 ft | 281 kts | 251° |
| 2026-04-30 18:18 | 36.23939 | 14.79788 | 10040 ft | 281 kts | 251° |
| 2026-04-30 18:18 | 36.23212 | 14.77537 | 10036 ft | 281 kts | 251° |
| 2026-04-30 18:19 | 36.22485 | 14.75289 | 10031 ft | 281 kts | 251° |
| 2026-04-30 18:19 | 36.21767 | 14.73068 | 10033 ft | 281 kts | 251° |
| 2026-04-30 18:19 | 36.21040 | 14.70823 | 10030 ft | 281 kts | 251° |
| 2026-04-30 18:19 | 36.20313 | 14.68578 | 10034 ft | 281 kts | 251° |
| 2026-04-30 18:20 | 36.19586 | 14.66338 | 10028 ft | 281 kts | 251° |
| 2026-04-30 18:20 | 36.18857 | 14.64092 | 10025 ft | 281 kts | 251° |
| 2026-04-30 18:20 | 36.18129 | 14.61848 | 10032 ft | 281 kts | 251° |
| 2026-04-30 18:20 | 36.17401 | 14.59610 | 10026 ft | 281 kts | 251° |
| 2026-04-30 18:21 | 36.16672 | 14.57368 | 10023 ft | 280 kts | 251° |
| 2026-04-30 18:21 | 36.15943 | 14.55126 | 10024 ft | 281 kts | 251° |
| 2026-04-30 18:21 | 36.15213 | 14.52887 | 10023 ft | 281 kts | 251° |
| 2026-04-30 18:21 | 36.14483 | 14.50647 | 9978 ft | 279 kts | 251° |
| 2026-04-30 18:22 | 36.13906 | 14.48376 | 9675 ft | 275 kts | 266° |
| 2026-04-30 18:22 | 36.14210 | 14.43720 | 8793 ft | 275 kts | 261° |
| 2026-04-30 18:22 | 36.13789 | 14.41414 | 8366 ft | 274 kts | 267° |
| 2026-04-30 18:23 | 36.14056 | 14.39125 | 8015 ft | 267 kts | 295° |
| 2026-04-30 18:23 | 36.15133 | 14.37362 | 7902 ft | 254 kts | 322° |
| 2026-04-30 18:23 | 36.16713 | 14.36485 | 7640 ft | 251 kts | 349° |
| 2026-04-30 18:23 | 36.18451 | 14.36677 | 7266 ft | 256 kts | 19° |
| 2026-04-30 18:24 | 36.20784 | 14.39860 | 6457 ft | 268 kts | 74° |
| 2026-04-30 18:24 | 36.20851 | 14.42184 | 5868 ft | 278 kts | 102° |
| 2026-04-30 18:24 | 36.20019 | 14.44341 | 5397 ft | 281 kts | 130° |
| 2026-04-30 18:25 | 36.18476 | 14.45796 | 5003 ft | 281 kts | 157° |
| 2026-04-30 18:25 | 36.14750 | 14.45530 | 4235 ft | 276 kts | 213° |
| 2026-04-30 18:25 | 36.13386 | 14.43930 | 4058 ft | 269 kts | 234° |
| 2026-04-30 18:26 | 36.10998 | 14.40262 | 4022 ft | 275 kts | 227° |
| 2026-04-30 18:26 | 36.09916 | 14.38879 | 4022 ft | 275 kts | 227° |
| 2026-04-30 18:26 | 36.08582 | 14.37193 | 4018 ft | 274 kts | 226° |
| 2026-04-30 18:27 | 36.05909 | 14.33831 | 3986 ft | 274 kts | 226° |
| 2026-04-30 18:27 | 36.04578 | 14.32157 | 3749 ft | 273 kts | 226° |
| 2026-04-30 18:28 | 36.01373 | 14.29833 | 3051 ft | 268 kts | 179° |
| 2026-04-30 18:28 | 35.99678 | 14.30442 | 3001 ft | 247 kts | 142° |
| 2026-04-30 18:28 | 35.97497 | 14.33168 | 2997 ft | 213 kts | 131° |
| 2026-04-30 18:29 | 35.96516 | 14.34453 | 2997 ft | 199 kts | 132° |
| 2026-04-30 18:29 | 35.93657 | 14.38012 | 2504 ft | 170 kts | 132° |
| 2026-04-30 18:30 | 35.92144 | 14.39879 | 2060 ft | 140 kts | 132° |
| 2026-04-30 18:30 | 35.90782 | 14.41563 | 1695 ft | 138 kts | 131° |
| 2026-04-30 18:31 | 35.90102 | 14.42401 | 1512 ft | 139 kts | 132° |
| 2026-04-30 18:31 | 35.88743 | 14.44077 | 1145 ft | 139 kts | 133° |
| 2026-04-30 18:32 | 35.87381 | 14.45743 | 757 ft | 137 kts | 133° |
| 2026-04-30 18:32 | 35.86701 | 14.46566 | 540 ft | 137 kts | 133° |
| 2026-04-30 18:32 | 35.85355 | 14.48244 | 258 ft | 133 kts | 132° |
| 2026-04-30 18:33 | 35.84824 | 14.48904 | 249 ft | 72 kts | 135° |
| 2026-04-30 18:33 | 35.84458 | 14.49441 | 251 ft | 26 kts | 109° |
| 2026-04-30 18:33 | 35.84461 | 14.49560 | 251 ft | 11 kts | 51° |
| 2026-04-30 18:34 | 35.84531 | 14.49560 | 250 ft | 11 kts | 302° |
| 2026-04-30 18:34 | 35.84668 | 14.49578 | 250 ft | 13 kts | 349° |
| 2026-04-30 18:34 | 35.84748 | 14.49516 | 250 ft | 14 kts | 340° |
| 2026-04-30 18:35 | 35.84818 | 14.49517 | 250 ft | 0 kts | 360° |
| 2026-04-30 18:36 | 35.98440 | 14.31884 | 2995 ft | 218 kts | 130° |
| 2026-04-30 18:37 | 35.86695 | 14.46573 | 538 ft | 131 kts | 133° |
| 2026-04-30 18:37 | 35.84813 | 14.48917 | 249 ft | 70 kts | 135° |
| 2026-04-30 18:37 | 35.85638 | 14.47885 | 296 ft | 137 kts | 131° |
| 2026-04-30 18:37 | 35.85051 | 14.48618 | 251 ft | 114 kts | 135° |
| 2026-04-30 18:38 | 35.85416 | 14.48169 | 259 ft | 119 kts | 132° |
| 2026-04-30 18:38 | 35.86581 | 14.46712 | 510 ft | 130 kts | 133° |
| 2026-04-30 18:39 | 35.84484 | 14.49579 | 251 ft | 12 kts | 24° |
| 2026-04-30 18:40 | 35.84549 | 14.49537 | 251 ft | 11 kts | 329° |
| 2026-04-30 18:40 | 35.85750 | 14.47739 | 319 ft | 138 kts | 131° |
| 2026-04-30 18:40 | 35.85286 | 14.48329 | 258 ft | 130 kts | 132° |
| 2026-04-30 18:40 | 35.84987 | 14.48698 | 251 ft | 105 kts | 134° |
| 2026-04-30 18:41 | 35.84785 | 14.48953 | 249 ft | 59 kts | 134° |
| 2026-04-30 18:41 | 35.84716 | 14.49036 | 249 ft | 47 kts | 136° |